Time;durP1;ratioP1;P1;durP2;ratioP2;P2;SDS_P1;SDS_P2;PMS_P1;PMS_P2;Temp;Humidity;BMP_temperature;BMP_pressure;BME280_temperature;BME280_humidity;BME280_pressure;Samples;Min_cycle;Max_cycle;Signal;HPM_P1;HPM_P2
2024/01/19 00:01:25;;;;;;;0.90;0.90;;;;;;;-5.63;100.00;97080.66;5114243;28;20040;-81
2024/01/19 00:04:17;;;;;;;1.00;1.00;;;;;;;-5.66;100.00;97073.16;5115702;28;20055;-81
2024/01/19 00:06:47;;;;;;;0.90;0.90;;;;;;;-5.54;100.00;97094.50;5114009;28;20051;-81
2024/01/19 00:09:16;;;;;;;1.00;1.00;;;;;;;-5.48;100.00;97106.88;5115208;28;20051;-81
2024/01/19 00:11:44;;;;;;;1.00;1.00;;;;;;;-5.49;100.00;97097.38;5114835;28;20058;-81
2024/01/19 00:14:11;;;;;;;1.00;1.00;;;;;;;-5.41;100.00;97104.31;5114828;28;20073;-81
2024/01/19 00:16:42;;;;;;;1.00;1.00;;;;;;;-5.38;100.00;97102.09;5115395;28;20055;-81
2024/01/19 00:19:09;;;;;;;0.82;0.82;;;;;;;-5.33;100.00;97101.53;5113915;28;20059;-81
2024/01/19 00:21:44;;;;;;;1.10;1.10;;;;;;;-5.35;100.00;97096.47;5124666;27;20064;-82
2024/01/19 00:24:14;;;;;;;0.90;0.90;;;;;;;-5.34;100.00;97095.47;5120732;27;20596;-81
2024/01/19 00:26:47;;;;;;;1.33;1.25;;;;;;;-5.28;100.00;97099.97;5137392;27;20047;-81
2024/01/19 00:29:14;;;;;;;0.93;0.93;;;;;;;-5.29;100.00;97098.34;5137288;27;20046;-81
2024/01/19 00:31:46;;;;;;;0.80;0.80;;;;;;;-5.29;100.00;97100.97;5137058;27;20566;-81
2024/01/19 00:34:16;;;;;;;1.27;1.17;;;;;;;-5.30;100.00;97098.53;5120617;27;20100;-81
2024/01/19 00:36:44;;;;;;;1.10;1.10;;;;;;;-5.32;100.00;97097.91;5116434;27;20050;-81
2024/01/19 00:39:14;;;;;;;0.90;0.90;;;;;;;-5.26;100.00;97097.16;5135177;27;20530;-82
2024/01/19 00:41:42;;;;;;;0.90;0.90;;;;;;;-5.32;100.00;97100.53;5134827;27;20079;-80
2024/01/19 00:44:12;;;;;;;0.85;0.85;;;;;;;-5.36;100.00;97089.59;5116180;27;20500;-81
2024/01/19 00:46:39;;;;;;;1.05;1.05;;;;;;;-5.36;100.00;97097.47;5116650;27;20073;-80
2024/01/19 00:49:12;;;;;;;1.00;1.00;;;;;;;-5.29;100.00;97108.88;5116227;27;20401;-81
2024/01/19 00:51:42;;;;;;;1.13;1.13;;;;;;;-5.23;100.00;97121.25;5134529;27;20054;-81
2024/01/19 00:54:09;;;;;;;0.90;0.90;;;;;;;-5.17;100.00;97110.97;5116501;27;20419;-81
2024/01/19 00:56:36;;;;;;;1.02;1.02;;;;;;;-5.21;100.00;97117.63;5116301;27;20050;-81
2024/01/19 00:59:04;;;;;;;1.00;1.00;;;;;;;-5.17;100.00;97121.47;5135345;27;20047;-81
2024/01/19 01:01:33;;;;;;;0.93;0.93;;;;;;;-5.21;100.00;97122.88;5134250;27;20046;-81
2024/01/19 01:04:02;;;;;;;1.35;1.25;;;;;;;-5.19;100.00;97126.13;5116376;27;20059;-81
2024/01/19 01:06:31;;;;;;;1.00;1.00;;;;;;;-5.20;100.00;97130.56;5115600;27;20062;-82
2024/01/19 01:09:01;;;;;;;0.90;0.90;;;;;;;-5.23;100.00;97133.59;5134600;27;20066;-80
2024/01/19 01:11:29;;;;;;;0.90;0.90;;;;;;;-5.23;100.00;97123.06;5098622;27;20523;-81
2024/01/19 01:13:57;;;;;;;0.90;0.90;;;;;;;-5.21;100.00;97117.63;5134492;27;20415;-81
2024/01/19 01:16:26;;;;;;;0.90;0.90;;;;;;;-5.18;100.00;97127.75;5115888;27;20088;-80
2024/01/19 01:18:53;;;;;;;0.93;0.93;;;;;;;-5.28;100.00;97131.50;5116078;27;20043;-81
2024/01/19 01:21:21;;;;;;;1.17;1.17;;;;;;;-5.28;100.00;97138.59;5134218;27;20047;-82
2024/01/19 01:23:50;;;;;;;1.00;1.00;;;;;;;-5.27;100.00;97145.47;5133660;27;20427;-80
2024/01/19 01:26:18;;;;;;;1.05;1.05;;;;;;;-5.33;100.00;97138.34;5133962;27;20109;-79
2024/01/19 01:28:45;;;;;;;0.90;0.90;;;;;;;-5.25;100.00;97148.72;5131472;27;20499;-81
2024/01/19 01:31:12;;;;;;;0.82;0.82;;;;;;;-5.23;100.00;97137.03;5113525;28;20408;-81
2024/01/19 01:33:40;;;;;;;1.10;1.10;;;;;;;-5.16;100.00;97136.28;5113110;28;20086;-81
2024/01/19 01:36:07;;;;;;;1.13;1.10;;;;;;;-5.16;100.00;97134.47;5113194;28;20054;-80
2024/01/19 01:38:35;;;;;;;0.90;0.90;;;;;;;-5.20;100.00;97135.03;5095480;28;20415;-82
2024/01/19 01:41:03;;;;;;;0.70;0.70;;;;;;;-5.23;100.00;97136.22;5113584;28;20515;-82
2024/01/19 01:43:30;;;;;;;1.10;1.10;;;;;;;-5.27;100.00;97141.03;5113138;28;20050;-81
2024/01/19 01:45:58;;;;;;;1.00;1.00;;;;;;;-5.26;100.00;97129.50;5078491;28;20048;-80
2024/01/19 01:48:25;;;;;;;1.00;1.00;;;;;;;-5.30;100.00;97123.00;5113370;28;20051;-82
2024/01/19 01:50:54;;;;;;;0.80;0.80;;;;;;;-5.23;100.00;97130.94;5113260;28;20063;-81
2024/01/19 01:53:23;;;;;;;1.00;1.00;;;;;;;-5.27;100.00;97137.59;5101106;28;20086;-81
2024/01/19 01:55:51;;;;;;;1.23;1.20;;;;;;;-5.25;100.00;97133.75;5104206;28;20054;-81
2024/01/19 01:58:19;;;;;;;0.98;0.98;;;;;;;-5.21;100.00;97136.03;5098295;28;20051;-82
2024/01/19 02:00:47;;;;;;;0.98;0.98;;;;;;;-5.24;100.00;97138.03;5112872;28;20054;-81
2024/01/19 02:03:15;;;;;;;0.95;0.95;;;;;;;-5.28;100.00;97142.03;5094697;28;20058;-81
2024/01/19 02:05:42;;;;;;;1.08;1.08;;;;;;;-5.29;100.00;97145.69;5112653;28;20509;-80
2024/01/19 02:08:10;;;;;;;0.90;0.90;;;;;;;-5.26;100.00;97144.50;5095047;28;20052;-81
2024/01/19 02:10:37;;;;;;;1.17;1.17;;;;;;;-5.23;100.00;97144.91;5112711;28;20197;-80
2024/01/19 02:13:05;;;;;;;0.98;0.98;;;;;;;-5.20;100.00;97143.72;5077543;28;20048;-79
2024/01/19 02:15:34;;;;;;;1.10;1.10;;;;;;;-5.18;100.00;97149.59;5077658;28;20197;-80
2024/01/19 02:18:04;;;;;;;0.90;0.90;;;;;;;-5.17;100.00;97155.69;5076912;28;20047;-81
2024/01/19 02:20:33;;;;;;;1.10;1.10;;;;;;;-5.14;100.00;97164.00;5094448;28;20044;-81
2024/01/19 02:23:02;;;;;;;1.00;1.00;;;;;;;-5.13;100.00;97154.31;5112394;28;20109;-81
2024/01/19 02:25:29;;;;;;;1.10;1.10;;;;;;;-5.08;100.00;97163.25;5100814;28;20062;-82
2024/01/19 02:27:57;;;;;;;1.05;1.05;;;;;;;-5.08;100.00;97167.69;5114618;28;20051;-81
2024/01/19 02:30:24;;;;;;;1.05;1.05;;;;;;;-5.09;100.00;97176.56;5133241;28;20039;-82
2024/01/19 02:32:52;;;;;;;1.10;1.10;;;;;;;-5.09;100.00;97174.78;5114503;28;20155;-81
2024/01/19 02:35:19;;;;;;;1.00;1.00;;;;;;;-5.12;100.00;97187.47;5114637;28;20067;-81
2024/01/19 02:37:47;;;;;;;0.93;0.93;;;;;;;-5.13;100.00;97193.75;5115157;28;20051;-81
2024/01/19 02:40:14;;;;;;;1.13;1.10;;;;;;;-5.12;100.00;97188.28;5114623;28;20511;-80
2024/01/19 02:42:41;;;;;;;0.88;0.88;;;;;;;-5.16;100.00;97194.94;5117522;27;20043;-81
2024/01/19 02:45:09;;;;;;;1.30;1.20;;;;;;;-5.18;100.00;97196.94;5118542;27;20054;-81
2024/01/19 02:47:38;;;;;;;1.00;1.00;;;;;;;-5.27;100.00;97201.50;5137177;27;20506;-80
2024/01/19 02:50:06;;;;;;;1.20;1.20;;;;;;;-5.25;100.00;97214.47;5137170;27;20043;-81
2024/01/19 02:52:33;;;;;;;1.10;1.10;;;;;;;-5.27;100.00;97217.28;5118181;27;20047;-82
2024/01/19 02:55:03;;;;;;;1.30;1.20;;;;;;;-5.24;100.00;97221.38;5135679;27;20054;-82
2024/01/19 02:57:31;;;;;;;1.00;1.00;;;;;;;-5.30;100.00;97222.94;5137341;27;20047;-81
2024/01/19 03:00:01;;;;;;;1.00;1.00;;;;;;;-5.31;100.00;97215.25;5137458;27;20042;-82
2024/01/19 03:02:29;;;;;;;1.10;1.10;;;;;;;-5.35;100.00;97217.41;5136689;27;20424;-82
2024/01/19 03:04:56;;;;;;;1.02;1.02;;;;;;;-5.32;100.00;97217.03;5136964;27;20187;-81
2024/01/19 03:07:24;;;;;;;1.00;1.00;;;;;;;-5.27;100.00;97224.38;5135866;27;20055;-81
2024/01/19 03:09:54;;;;;;;0.85;0.85;;;;;;;-5.28;100.00;97226.19;5136984;27;20085;-80
2024/01/19 03:12:21;;;;;;;1.10;1.10;;;;;;;-5.34;100.00;97228.75;5136852;27;20043;-81
2024/01/19 03:14:49;;;;;;;1.13;1.13;;;;;;;-5.38;100.00;97223.06;5136620;27;20484;-82
2024/01/19 03:17:17;;;;;;;1.05;1.05;;;;;;;-5.35;100.00;97230.56;5136627;27;20100;-82
2024/01/19 03:19:44;;;;;;;0.82;0.82;;;;;;;-5.33;100.00;97239.09;5136408;27;20126;-81
2024/01/19 03:22:11;;;;;;;0.90;0.90;;;;;;;-5.30;100.00;97236.06;5135830;27;20039;-82
2024/01/19 03:24:41;;;;;;;1.10;1.10;;;;;;;-5.33;100.00;97241.72;5101884;27;20050;-82
2024/01/19 03:27:14;;;;;;;1.17;1.17;;;;;;;-5.44;100.00;97236.97;5136148;27;20058;-81
2024/01/19 03:29:43;;;;;;;1.10;1.10;;;;;;;-5.42;100.00;97226.25;5136174;27;20054;-82
2024/01/19 03:32:11;;;;;;;0.90;0.90;;;;;;;-5.38;100.00;97236.19;5136030;27;20515;-80
2024/01/19 03:34:38;;;;;;;1.10;1.10;;;;;;;-5.41;100.00;97249.72;5136038;27;20053;-82
2024/01/19 03:37:05;;;;;;;1.02;1.02;;;;;;;-5.39;100.00;97250.38;5117249;27;20081;-82
2024/01/19 03:39:33;;;;;;;1.05;1.05;;;;;;;-5.35;100.00;97258.69;5135707;27;20105;-80
2024/01/19 03:42:02;;;;;;;1.10;1.10;;;;;;;-5.36;100.00;97249.97;5117986;27;20499;-82
2024/01/19 03:44:29;;;;;;;0.90;0.90;;;;;;;-5.37;100.00;97248.34;5115353;28;20079;-82
2024/01/19 03:46:59;;;;;;;1.10;1.10;;;;;;;-5.37;100.00;97258.84;5097485;28;20155;-82
2024/01/19 03:49:26;;;;;;;1.10;1.10;;;;;;;-5.41;100.00;97264.69;5115263;28;20055;-81
2024/01/19 03:52:00;;;;;;;1.10;1.10;;;;;;;-5.42;100.00;97266.47;5097008;28;20424;-81
2024/01/19 03:54:28;;;;;;;1.30;1.20;;;;;;;-5.46;100.00;97275.75;5113637;28;20117;-82
2024/01/19 03:56:58;;;;;;;1.10;1.10;;;;;;;-5.50;100.00;97285.81;5097094;28;20647;-80
2024/01/19 03:59:29;;;;;;;1.25;1.17;;;;;;;-5.49;100.00;97291.91;5097501;28;20411;-82
2024/01/19 04:01:56;;;;;;;1.10;1.10;;;;;;;-5.50;100.00;97285.81;5096820;28;20126;-81
2024/01/19 04:04:24;;;;;;;0.90;0.90;;;;;;;-5.54;100.00;97284.56;5115781;28;20400;-82
2024/01/19 04:06:52;;;;;;;0.93;0.93;;;;;;;-5.56;100.00;97285.75;5115232;28;20070;-83
2024/01/19 04:09:19;;;;;;;1.23;1.20;;;;;;;-5.56;100.00;97278.69;5080205;28;20511;-80
2024/01/19 04:11:48;;;;;;;1.10;1.10;;;;;;;-5.59;100.00;97291.38;5115547;28;20143;-83
2024/01/19 04:14:15;;;;;;;0.80;0.80;;;;;;;-5.58;100.00;97285.94;5114674;28;20058;-82
2024/01/19 04:16:44;;;;;;;0.90;0.90;;;;;;;-5.54;100.00;97296.91;5114547;28;20150;-82
2024/01/19 04:19:11;;;;;;;1.00;1.00;;;;;;;-5.55;100.00;97300.50;5112740;27;20039;-83
2024/01/19 04:21:38;;;;;;;1.30;1.20;;;;;;;-5.55;100.00;97303.16;5129783;27;20071;-83
2024/01/19 04:24:06;;;;;;;1.00;1.00;;;;;;;-5.51;100.00;97314.94;5113796;28;20051;-83
2024/01/19 04:26:37;;;;;;;0.98;0.98;;;;;;;-5.50;100.00;97329.69;5115125;28;20043;-82
2024/01/19 04:29:04;;;;;;;1.00;1.00;;;;;;;-5.49;100.00;97336.59;5114453;28;20500;-82
2024/01/19 04:31:31;;;;;;;0.93;0.93;;;;;;;-5.51;100.00;97334.16;5112221;27;20048;-83
2024/01/19 04:34:00;;;;;;;1.00;1.00;;;;;;;-5.51;100.00;97341.22;5109232;27;20497;-80
2024/01/19 04:36:27;;;;;;;0.90;0.90;;;;;;;-5.56;100.00;97354.09;5090020;28;20040;-81
2024/01/19 04:38:54;;;;;;;1.00;1.00;;;;;;;-5.53;100.00;97356.34;5096829;27;20763;-80
2024/01/19 04:41:22;;;;;;;1.00;1.00;;;;;;;-5.57;100.00;97358.56;5104114;28;20044;-81
2024/01/19 04:43:49;;;;;;;0.90;0.90;;;;;;;-5.55;100.00;97366.22;5103372;27;20039;-82
2024/01/19 04:46:18;;;;;;;0.77;0.77;;;;;;;-5.54;100.00;97367.88;5080518;28;20051;-84
2024/01/19 04:48:45;;;;;;;1.08;1.08;;;;;;;-5.53;100.00;97372.13;5123374;27;20061;-81
2024/01/19 04:51:15;;;;;;;1.23;1.20;;;;;;;-5.56;100.00;97377.75;5096848;27;20446;-84
2024/01/19 04:53:42;;;;;;;1.00;1.00;;;;;;;-5.54;100.00;97387.09;5106038;27;20602;-80
2024/01/19 04:56:10;;;;;;;0.90;0.90;;;;;;;-5.60;100.00;97379.91;5126382;27;20043;-83
2024/01/19 04:58:37;;;;;;;1.00;1.00;;;;;;;-5.66;100.00;97375.41;5093775;27;20043;-83
2024/01/19 05:01:06;;;;;;;1.15;1.15;;;;;;;-5.60;100.00;97385.19;5098762;27;20129;-82
2024/01/19 05:03:35;;;;;;;1.10;1.10;;;;;;;-5.69;100.00;97381.03;5126861;27;20556;-82
2024/01/19 05:06:02;;;;;;;1.00;1.00;;;;;;;-5.73;100.00;97385.81;4755100;27;10000971;-81
2024/01/19 05:08:30;;;;;;;1.02;1.02;;;;;;;-5.77;100.00;97386.34;5110701;28;20067;-84
2024/01/19 05:10:57;;;;;;;0.85;0.85;;;;;;;-5.75;100.00;97400.13;5115169;27;20039;-83
2024/01/19 05:13:24;;;;;;;0.90;0.90;;;;;;;-5.80;100.00;97392.78;5113772;27;20416;-83
2024/01/19 05:15:51;;;;;;;0.73;0.73;;;;;;;-5.83;100.00;97398.41;5093631;28;20044;-83
2024/01/19 05:18:22;;;;;;;0.93;0.93;;;;;;;-5.83;100.00;97401.03;5093815;28;20082;-84
2024/01/19 05:20:49;;;;;;;0.90;0.90;;;;;;;-5.89;100.00;97399.94;5112397;28;20097;-83
2024/01/19 05:23:16;;;;;;;1.00;1.00;;;;;;;-5.91;100.00;97396.66;5111749;27;20051;-83
2024/01/19 05:25:44;;;;;;;1.00;1.00;;;;;;;-5.95;100.00;97413.00;5094104;28;20181;-83
2024/01/19 05:28:11;;;;;;;1.08;1.08;;;;;;;-5.97;100.00;97410.56;5112397;28;20074;-83
2024/01/19 05:30:38;;;;;;;0.90;0.90;;;;;;;-5.92;100.00;97425.75;5094755;28;20047;-83
2024/01/19 05:33:06;;;;;;;1.00;1.00;;;;;;;-5.95;100.00;97434.00;5112968;28;20146;-82
2024/01/19 05:35:33;;;;;;;1.00;1.00;;;;;;;-5.89;100.00;97441.16;5095528;28;20587;-83
2024/01/19 05:38:03;;;;;;;1.02;1.02;;;;;;;-5.90;100.00;97447.41;5094598;28;20546;-83
2024/01/19 05:40:31;;;;;;;1.00;1.00;;;;;;;-5.91;100.00;97456.28;5112894;28;20044;-82
2024/01/19 05:42:58;;;;;;;0.88;0.88;;;;;;;-5.89;100.00;97468.25;5094422;28;20051;-82
2024/01/19 05:45:26;;;;;;;1.00;1.00;;;;;;;-5.95;100.00;97453.25;5094656;28;20058;-82
2024/01/19 05:47:53;;;;;;;1.13;1.13;;;;;;;-5.94;100.00;97475.88;5094893;28;20106;-84
2024/01/19 05:50:24;;;;;;;0.90;0.90;;;;;;;-5.96;100.00;97477.88;5112978;28;20071;-82
2024/01/19 05:52:51;;;;;;;1.17;1.17;;;;;;;-5.97;100.00;97478.06;5077581;28;20051;-83
2024/01/19 05:55:18;;;;;;;1.00;1.00;;;;;;;-5.99;100.00;97485.28;5094502;28;20050;-82
2024/01/19 05:57:45;;;;;;;1.30;1.20;;;;;;;-6.02;100.00;97491.72;5112683;28;20488;-82
2024/01/19 06:00:15;;;;;;;0.80;0.80;;;;;;;-6.01;100.00;97489.91;5060882;28;20361;-82
2024/01/19 06:02:42;;;;;;;1.05;1.05;;;;;;;-5.94;100.00;97498.72;5112540;28;20067;-83
2024/01/19 06:05:09;;;;;;;0.77;0.77;;;;;;;-5.95;100.00;97504.94;5112717;28;20058;-83
2024/01/19 06:07:37;;;;;;;1.33;1.23;;;;;;;-5.95;100.00;97497.91;5112635;28;20134;-83
2024/01/19 06:10:06;;;;;;;1.23;1.20;;;;;;;-5.94;100.00;97494.28;5112848;28;20382;-83
2024/01/19 06:12:33;;;;;;;1.02;1.02;;;;;;;-5.93;100.00;97500.31;5112581;28;20523;-83
2024/01/19 06:15:00;;;;;;;1.10;1.10;;;;;;;-5.93;100.00;97516.88;5076794;28;20491;-82
2024/01/19 06:17:31;;;;;;;1.10;1.10;;;;;;;-5.94;100.00;97517.91;5097636;28;20461;-81
2024/01/19 06:19:59;;;;;;;0.90;0.90;;;;;;;-5.96;99.96;97530.41;5098813;28;20067;-82
2024/01/19 06:22:29;;;;;;;0.80;0.80;;;;;;;-6.00;99.43;97534.41;5081588;28;20047;-82
2024/01/19 06:24:59;;;;;;;1.30;1.20;;;;;;;-6.14;99.25;97528.06;5098295;28;20500;-83
2024/01/19 06:27:27;;;;;;;0.90;0.90;;;;;;;-6.10;99.55;97541.69;5116718;28;20047;-83
2024/01/19 06:30:00;;;;;;;1.05;1.05;;;;;;;-6.15;99.07;97551.91;5116480;28;20056;-82
2024/01/19 06:32:30;;;;;;;0.90;0.90;;;;;;;-6.17;99.28;97546.81;5082151;28;20561;-83
2024/01/19 06:34:58;;;;;;;0.77;0.77;;;;;;;-6.20;98.90;97556.81;5115947;28;20071;-82
2024/01/19 06:37:29;;;;;;;0.90;0.90;;;;;;;-6.22;99.08;97550.97;5080975;28;20095;-82
2024/01/19 06:39:56;;;;;;;0.82;0.82;;;;;;;-6.22;99.07;97564.91;5081381;28;20043;-82
2024/01/19 06:42:24;;;;;;;0.90;0.90;;;;;;;-6.22;99.08;97554.38;5116284;28;20086;-83
2024/01/19 06:44:52;;;;;;;0.82;0.82;;;;;;;-6.15;99.13;97559.78;5116222;28;20543;-83
2024/01/19 06:47:24;;;;;;;0.90;0.90;;;;;;;-6.12;99.00;97575.19;5081942;28;20385;-83
2024/01/19 06:49:57;;;;;;;0.88;0.88;;;;;;;-6.17;99.16;97577.50;5065563;28;20055;-83
2024/01/19 06:52:24;;;;;;;0.90;0.90;;;;;;;-6.10;98.95;97588.97;5116066;28;20134;-83
2024/01/19 06:54:52;;;;;;;1.10;1.10;;;;;;;-6.09;98.85;97589.78;5097541;28;20424;-83
2024/01/19 06:57:26;;;;;;;0.90;0.90;;;;;;;-6.16;99.00;97577.31;5099037;28;20055;-82
2024/01/19 07:00:04;;;;;;;1.02;1.02;;;;;;;-6.12;98.84;97585.69;5098702;28;20047;-81
2024/01/19 07:02:32;;;;;;;1.10;1.10;;;;;;;-6.10;99.11;97578.47;5116110;28;20113;-81
2024/01/19 07:04:59;;;;;;;0.90;0.90;;;;;;;-6.03;99.13;97592.50;5081517;28;20047;-83
2024/01/19 07:07:26;;;;;;;1.00;1.00;;;;;;;-6.00;99.08;97593.97;5115703;28;20198;-82
2024/01/19 07:09:56;;;;;;;0.98;0.98;;;;;;;-5.87;98.79;97612.59;5098575;28;20107;-83
2024/01/19 07:12:24;;;;;;;1.10;1.10;;;;;;;-5.84;98.51;97601.72;5097494;28;20407;-83
2024/01/19 07:14:51;;;;;;;1.02;1.02;;;;;;;-5.75;98.32;97605.91;5097548;28;20096;-82
2024/01/19 07:17:19;;;;;;;0.90;0.90;;;;;;;-5.70;98.33;97598.34;5091955;28;20093;-83
2024/01/19 07:19:46;;;;;;;1.27;1.20;;;;;;;-5.81;97.84;97593.50;5095027;28;20083;-84
2024/01/19 07:22:13;;;;;;;1.08;1.08;;;;;;;-5.79;97.48;97606.47;5119471;27;20055;-83
2024/01/19 07:24:44;;;;;;;1.40;1.30;;;;;;;-5.75;97.46;97608.53;5136653;27;20058;-82
2024/01/19 07:27:11;;;;;;;1.05;1.05;;;;;;;-5.73;97.41;97621.53;5136274;27;20051;-82
2024/01/19 07:29:38;;;;;;;1.02;1.02;;;;;;;-5.74;97.19;97610.19;5136071;27;20047;-83
2024/01/19 07:32:09;;;;;;;1.10;1.10;;;;;;;-5.60;97.16;97623.56;5135963;27;20142;-83
2024/01/19 07:34:36;;;;;;;0.80;0.80;;;;;;;-5.64;96.95;97624.94;5117179;27;20452;-83
2024/01/19 07:37:05;;;;;;;1.15;1.15;;;;;;;-5.60;95.99;97634.09;5135694;27;20053;-84
2024/01/19 07:39:32;;;;;;;1.10;1.10;;;;;;;-5.57;95.85;97625.84;5117748;27;20055;-83
2024/01/19 07:42:00;;;;;;;0.93;0.93;;;;;;;-5.48;95.49;97632.69;5090166;28;20040;-83
2024/01/19 07:44:28;;;;;;;1.13;1.10;;;;;;;-5.50;95.13;97637.28;5093166;27;20055;-85
2024/01/19 07:46:56;;;;;;;1.33;1.23;;;;;;;-5.51;94.58;97638.31;5103851;27;20101;-83
2024/01/19 07:49:23;;;;;;;1.10;1.10;;;;;;;-5.54;94.13;97649.16;5109839;27;20138;-85
2024/01/19 07:51:50;;;;;;;1.30;1.20;;;;;;;-5.49;93.62;97654.72;5130027;27;20417;-84
2024/01/19 07:54:18;;;;;;;1.10;1.10;;;;;;;-5.50;93.30;97664.41;5127515;27;20056;-84
2024/01/19 07:56:45;;;;;;;1.10;1.10;;;;;;;-5.50;93.37;97655.69;5125243;27;20048;-85
2024/01/19 07:59:15;;;;;;;0.77;0.77;;;;;;;-5.30;93.65;97666.56;5127677;27;20047;-84
2024/01/19 08:01:43;;;;;;;1.10;1.10;;;;;;;-5.31;93.02;97676.28;5104758;28;20048;-84
2024/01/19 08:04:11;;;;;;;0.90;0.90;;;;;;;-5.50;92.51;97660.97;5093273;27;20044;-84
2024/01/19 08:06:38;;;;;;;1.08;1.08;;;;;;;-5.52;92.81;97676.09;5110798;27;20046;-84
2024/01/19 08:09:07;;;;;;;0.95;0.95;;;;;;;-5.58;93.23;97676.78;5126459;27;20082;-83
2024/01/19 08:11:35;;;;;;;0.88;0.88;;;;;;;-5.57;93.36;97695.03;5081699;27;20474;-83
2024/01/19 08:14:03;;;;;;;1.00;1.00;;;;;;;-5.62;93.76;97696.53;5101723;28;20058;-83
2024/01/19 08:16:30;;;;;;;0.90;0.90;;;;;;;-5.53;93.80;97706.00;5100422;27;20042;-81
2024/01/19 08:18:57;;;;;;;1.00;1.00;;;;;;;-5.59;93.52;97704.91;5133967;27;20086;-83
2024/01/19 08:21:25;;;;;;;1.30;1.20;;;;;;;-5.56;93.61;97706.34;5125477;27;20036;-81
2024/01/19 08:23:53;;;;;;;0.95;0.95;;;;;;;-5.55;93.56;97705.34;5078959;28;20404;-83
2024/01/19 08:26:21;;;;;;;1.10;1.10;;;;;;;-5.51;93.10;97709.28;5114892;27;20047;-83
2024/01/19 08:28:49;;;;;;;1.33;1.23;;;;;;;-5.35;93.19;97708.34;5123044;27;20065;-82
2024/01/19 08:31:16;;;;;;;1.10;1.10;;;;;;;-5.24;92.83;97706.13;5137473;27;20090;-82
2024/01/19 08:33:43;;;;;;;0.90;0.90;;;;;;;-5.10;92.49;97719.50;5130563;27;20050;-83
2024/01/19 08:36:11;;;;;;;0.93;0.93;;;;;;;-5.05;92.06;97719.81;5128626;27;20043;-81
2024/01/19 08:38:38;;;;;;;1.02;1.02;;;;;;;-5.06;92.00;97710.28;5128419;27;20484;-82
2024/01/19 08:41:05;;;;;;;1.10;1.10;;;;;;;-5.07;91.11;97732.31;5101517;27;20051;-83
2024/01/19 08:43:33;;;;;;;1.40;1.30;;;;;;;-5.28;90.35;97731.16;5110834;27;20047;-82
2024/01/19 08:46:03;;;;;;;1.05;1.05;;;;;;;-5.36;90.01;97738.28;5117685;27;20040;-82
2024/01/19 08:48:31;;;;;;;1.00;1.00;;;;;;;-5.38;90.28;97735.00;5144808;27;20043;-81
2024/01/19 08:50:58;;;;;;;1.05;1.05;;;;;;;-5.34;90.47;97741.53;5118435;27;20046;-83
2024/01/19 08:53:26;;;;;;;1.33;1.23;;;;;;;-5.35;90.24;97735.47;5112389;27;20118;-82
2024/01/19 08:55:53;;;;;;;1.27;1.20;;;;;;;-5.42;89.65;97737.16;5132192;27;19923;-84
2024/01/19 08:58:21;;;;;;;1.40;1.30;;;;;;;-5.50;89.92;97726.69;5055612;27;20539;-83
2024/01/19 09:00:48;;;;;;;1.00;1.00;;;;;;;-5.40;89.86;97736.97;5116342;27;20047;-83
2024/01/19 09:03:16;;;;;;;1.10;1.10;;;;;;;-5.40;89.71;97745.69;5100651;27;20142;-83
2024/01/19 09:05:45;;;;;;;1.40;1.30;;;;;;;-5.35;89.67;97748.59;5129577;27;20054;-82
2024/01/19 09:08:13;;;;;;;1.10;1.10;;;;;;;-5.25;89.42;97759.72;5114796;27;20134;-83
2024/01/19 09:10:43;;;;;;;1.40;1.30;;;;;;;-5.15;88.73;97746.34;5134184;27;20039;-83
2024/01/19 09:13:12;;;;;;;1.27;1.20;;;;;;;-4.99;89.06;97742.75;5127381;27;20040;-83
2024/01/19 09:15:40;;;;;;;1.30;1.20;;;;;;;-4.74;88.76;97753.09;5128184;27;20047;-81
2024/01/19 09:18:08;;;;;;;0.93;0.93;;;;;;;-4.64;87.74;97766.84;5119040;27;20055;-83
2024/01/19 09:20:35;;;;;;;1.10;1.10;;;;;;;-4.71;86.79;97758.00;5079683;27;20054;-82
2024/01/19 09:23:03;;;;;;;1.33;1.23;;;;;;;-4.64;86.62;97769.47;5103948;27;20465;-83
2024/01/19 09:25:31;;;;;;;1.10;1.10;;;;;;;-4.74;86.42;97787.31;5127631;27;20085;-83
2024/01/19 09:27:58;;;;;;;1.08;1.08;;;;;;;-4.86;86.09;97798.28;5114305;27;20490;-83
2024/01/19 09:30:25;;;;;;;1.00;1.00;;;;;;;-4.87;86.17;97801.88;5132627;27;20054;-83
2024/01/19 09:32:53;;;;;;;1.50;1.40;;;;;;;-4.91;86.08;97811.16;5132342;27;20053;-82
2024/01/19 09:35:21;;;;;;;0.82;0.82;;;;;;;-4.90;86.03;97812.78;5124371;27;20446;-83
2024/01/19 09:37:48;;;;;;;1.33;1.23;;;;;;;-4.83;86.40;97805.81;5127284;27;20043;-83
2024/01/19 09:40:16;;;;;;;1.30;1.20;;;;;;;-4.75;86.35;97798.84;5133003;27;20474;-83
2024/01/19 09:42:49;;;;;;;1.30;1.20;;;;;;;-4.80;85.94;97804.66;5114910;27;20074;-83
2024/01/19 09:45:19;;;;;;;1.23;1.17;;;;;;;-4.82;86.13;97801.38;5113135;27;20057;-82
2024/01/19 09:48:22;;;;;;;1.30;1.20;;;;;;;-4.82;86.10;97815.34;5114453;27;20096;-83
2024/01/19 09:50:55;;;;;;;1.35;1.25;;;;;;;-4.70;85.73;97822.84;5126116;27;20050;-82
2024/01/19 09:53:27;;;;;;;1.10;1.10;;;;;;;-4.60;85.37;97812.88;5122320;27;20047;-81
2024/01/19 09:55:54;;;;;;;1.55;1.45;;;;;;;-4.54;84.84;97822.69;5095542;27;20222;-82
2024/01/19 09:58:26;;;;;;;1.40;1.30;;;;;;;-4.51;84.72;97843.41;5110269;28;20047;-83
2024/01/19 10:00:54;;;;;;;1.33;1.23;;;;;;;-4.59;84.63;97828.50;5109575;28;20130;-86
2024/01/19 10:03:24;;;;;;;1.33;1.23;;;;;;;-4.49;84.17;97836.16;5113505;28;20480;-83
2024/01/19 10:05:52;;;;;;;1.23;1.17;;;;;;;-4.41;84.12;97832.63;5112062;28;20111;-84
2024/01/19 10:08:20;;;;;;;1.40;1.30;;;;;;;-4.37;83.28;97842.63;5091638;28;20075;-82
2024/01/19 10:10:50;;;;;;;1.20;1.15;;;;;;;-4.38;82.98;97842.81;5112303;28;20051;-84
2024/01/19 10:13:19;;;;;;;1.40;1.30;;;;;;;-4.33;83.26;97840.47;5114849;28;20044;-82
2024/01/19 10:15:46;;;;;;;1.17;1.15;;;;;;;-4.36;82.69;97848.72;5119103;28;20096;-83
2024/01/19 10:18:14;;;;;;;1.40;1.30;;;;;;;-4.49;82.83;97851.94;5088310;28;20044;-83
2024/01/19 10:20:43;;;;;;;1.10;1.10;;;;;;;-4.47;83.22;97860.50;5122717;28;20507;-82
2024/01/19 10:23:21;;;;;;;1.30;1.20;;;;;;;-4.62;83.33;97867.53;5111315;28;20444;-83
2024/01/19 10:25:50;;;;;;;1.10;1.10;;;;;;;-4.63;83.06;97879.06;5117426;28;20051;-82
2024/01/19 10:28:31;;;;;;;1.00;1.00;;;;;;;-4.61;83.25;97875.28;5114222;28;20058;-83
2024/01/19 10:31:22;;;;;;;1.33;1.23;;;;;;;-4.57;83.19;97873.91;5124678;28;20510;-83
2024/01/19 10:33:55;;;;;;;1.00;1.00;;;;;;;-4.50;83.13;97874.03;5090147;28;20496;-83
2024/01/19 10:36:23;;;;;;;1.10;1.10;;;;;;;-4.53;83.18;97876.19;5116736;28;20036;-84
2024/01/19 10:38:50;;;;;;;1.00;1.00;;;;;;;-4.50;82.48;97879.31;5106879;28;20052;-84
2024/01/19 10:41:26;;;;;;;1.10;1.10;;;;;;;-4.54;82.16;97878.00;5098738;28;20504;-83
2024/01/19 10:44:09;;;;;;;1.10;1.10;;;;;;;-4.68;82.17;97887.50;5100910;28;20417;-83
2024/01/19 10:46:37;;;;;;;1.27;1.20;;;;;;;-4.70;81.89;97889.47;5131739;28;20119;-83
2024/01/19 10:49:08;;;;;;;1.10;1.10;;;;;;;-4.71;81.65;97894.91;5096226;28;20049;-84
2024/01/19 10:51:44;;;;;;;1.17;1.15;;;;;;;-4.77;81.31;97890.34;5107392;28;20039;-84
2024/01/19 10:54:23;;;;;;;1.33;1.23;;;;;;;-4.75;81.10;97901.53;5110264;28;20052;-83
2024/01/19 10:57:05;;;;;;;1.05;1.05;;;;;;;-4.76;80.64;97908.59;5111238;28;20051;-84
2024/01/19 10:59:34;;;;;;;1.08;1.08;;;;;;;-4.85;80.70;97915.72;5094583;28;20135;-83
2024/01/19 11:02:03;;;;;;;1.27;1.20;;;;;;;-4.86;81.01;97924.63;5112681;28;20058;-83
2024/01/19 11:04:32;;;;;;;1.25;1.20;;;;;;;-4.93;81.35;97926.28;5081244;28;20360;-83
2024/01/19 11:07:00;;;;;;;1.25;1.15;;;;;;;-4.89;81.76;97934.66;5116294;28;20044;-83
2024/01/19 11:09:29;;;;;;;1.10;1.10;;;;;;;-4.94;81.94;97921.19;5116015;28;20047;-84
2024/01/19 11:11:58;;;;;;;1.40;1.30;;;;;;;-4.99;82.22;97924.34;5115596;28;20135;-84
2024/01/19 11:14:27;;;;;;;1.40;1.30;;;;;;;-4.93;82.21;97936.81;5116240;28;20071;-84
2024/01/19 11:16:55;;;;;;;1.10;1.10;;;;;;;-4.87;81.57;97944.00;5116374;28;20048;-82
2024/01/19 11:19:23;;;;;;;1.02;1.02;;;;;;;-4.88;81.84;97950.28;5081039;28;20428;-83
2024/01/19 11:21:51;;;;;;;1.40;1.30;;;;;;;-4.47;81.28;97943.97;5115224;28;20050;-84
2024/01/19 11:24:20;;;;;;;1.02;1.02;;;;;;;-4.11;80.39;97957.38;5115439;28;20349;-83
2024/01/19 11:27:03;;;;;;;1.38;1.27;;;;;;;-4.59;80.26;97962.78;5115603;28;20073;-83
2024/01/19 11:29:42;;;;;;;1.17;1.17;;;;;;;-4.77;81.18;97964.06;5097741;28;20085;-83
2024/01/19 11:32:11;;;;;;;1.67;1.58;;;;;;;-4.36;81.25;97970.69;5080518;28;20076;-84
2024/01/19 11:35:02;;;;;;;1.10;1.10;;;;;;;-3.89;79.92;97968.09;5098135;28;20113;-83
2024/01/19 11:37:46;;;;;;;1.15;1.13;;;;;;;-3.85;78.75;97962.25;5098051;28;20075;-84